Accueil
METAR-TAF:

METAR-TAF

Aéroports :

Aéroport international de Denver

Denver, Colorado, États-Unis

latitude: 39-49-58N, longitude: 104-39-27W, altitude: 1655 m

Observation

Le bulletin a été fait il y a 29 minutes, à 23:53 UTC
Vent 6 kt de sud/sud-ouest
Température -5°C
Humidité 73%
Pression 1030 hPa
Visibilité: 16.1 km
Ciel clair

METAR: KDEN 112353Z 21006KT 10SM CLR M05/M09 A3043 RMK AO2 SLP355 T10501089 11044 21094 56008 $

Heure: 17:22 (00:22 UTC)

Prévision

Le bulletin a été fait il y a 44 minutes, à 23:38 UTC
Prévision valable du 12 à 00 UTC au 13 à 06 UTC
Vent 7 kt de sud/sud-ouest
Visibilité: 10 km
Ciel clair
A partir de 12 à 0900 UTC
Vent 13 kt de ouest/sud-ouest
Visibilité: 10 km
Quelques nuages à une hauteur de 22000 ft

TAF: KDEN 112338Z 1200/1306 21007KT P6SM SKC FM120900 24013KT P6SM FEW220

Observations et prévisions météorologiques de plus de 4000 aéroports (messages METAR et TAF).

Les stations disponibles sont représentées par des disques jaunes et rouges sur la carte.

Passer la souris dessus pour voir le nom de la station.

Cliquer dessus pour voir les observations et prévisions météorologiques.

Pour changer de carte: cliquez sur les boutons verts avec une croix noire pour zoomer, sur le bouton vert avec un tiret pour effectuer un zoom arrière, ou sur les flèches vertes pour les cartes adjacentes.


METAR-TAF: